Pleasant Ridge, Illinois
Current Conditions -  °F | °C
As of 4:15 PM on Sunday 23 Nov 2014 (Local Time) from KPNT Reporting Station
Moderate Rain Moderate Rain  
Wind Chill: 51°   Ceiling: 600
Heat Index: 51°   Visibility: 5mi
Dew Point: 51°   Wind: 12mph
Humidity: 98%   Direction: 130°SE
Pressure: 29.41"   Gusts: NA
Location:  40.7521°N, 88.412°W
Report Text: KPNT 232215Z AUTO 13010KT 5SM RA OVC006 11/10 A2941 RMK AO2 P0002 T01060103
Loading
Personal Weather Stations






























Interactive Weather Map New forecast layout! Learn more

10-Day Weather Forecast

Advertisements
Track Severe Weather on mobile